createdAt,value
2022-09-25T00:00:13.571Z,79.32
2022-09-25T00:02:43.715Z,79.68
2022-09-25T00:05:13.804Z,80.13
2022-09-25T00:07:46.508Z,80.20
2022-09-25T00:10:16.555Z,80.10
2022-09-25T00:12:46.605Z,80.53
2022-09-25T00:15:16.566Z,80.75
2022-09-25T00:17:46.609Z,81.44
2022-09-25T00:20:17.028Z,81.29
2022-09-25T00:22:50.215Z,80.96
2022-09-25T00:25:21.342Z,81.49
2022-09-25T00:27:51.781Z,81.95
2022-09-25T00:30:22.127Z,82.16
2022-09-25T00:32:52.211Z,82.05
2022-09-25T00:35:22.242Z,82.29
2022-09-25T00:37:54.912Z,82.34
2022-09-25T00:40:25.005Z,82.56
2022-09-25T00:42:55.100Z,82.49
2022-09-25T00:45:25.412Z,82.48
2022-09-25T00:48:00.457Z,82.42
2022-09-25T00:50:37.750Z,82.44
2022-09-25T00:53:17.529Z,82.65
2022-09-25T00:55:49.160Z,82.68
2022-09-25T00:58:25.954Z,82.58
2022-09-25T01:00:56.842Z,82.61
2022-09-25T01:03:27.553Z,82.75
2022-09-25T01:06:00.431Z,83.33
2022-09-25T01:08:35.225Z,83.56
2022-09-25T01:11:05.426Z,83.09
2022-09-25T01:13:35.859Z,83.28
2022-09-25T01:16:17.365Z,83.35
2022-09-25T01:19:12.901Z,83.67
2022-09-25T01:21:50.997Z,83.39
2022-09-25T01:24:47.845Z,83.54
2022-09-25T01:27:42.065Z,83.98
2022-09-25T01:30:18.326Z,84.02
2022-09-25T01:33:01.338Z,84.18
2022-09-25T01:35:48.642Z,84.58
2022-09-25T01:38:29.887Z,84.77
2022-09-25T01:41:08.465Z,84.87
2022-09-25T01:43:43.223Z,84.78
2022-09-25T01:46:19.939Z,85.43
2022-09-25T01:48:57.505Z,85.79
2022-09-25T01:51:33.523Z,85.94
2022-09-25T01:54:10.919Z,85.16
2022-09-25T01:56:49.002Z,85.85
2022-09-25T01:59:22.717Z,86.14
2022-09-25T02:01:58.649Z,85.69
2022-09-25T02:04:35.282Z,86.07
2022-09-25T02:07:09.743Z,85.76
2022-09-25T02:09:45.910Z,85.49
2022-09-25T02:12:20.962Z,84.90
2022-09-25T02:14:56.205Z,85.14
2022-09-25T02:17:49.784Z,85.30
2022-09-25T02:20:36.537Z,85.20
2022-09-25T02:23:18.890Z,85.19
2022-09-25T02:25:59.641Z,84.71
2022-09-25T02:28:29.809Z,84.62
2022-09-25T02:31:02.196Z,84.30
2022-09-25T02:33:35.336Z,84.58
2022-09-25T02:36:09.902Z,84.45
2022-09-25T02:38:39.969Z,84.41
2022-09-25T02:41:21.940Z,84.63
2022-09-25T02:44:07.211Z,84.14
2022-09-25T02:46:47.432Z,83.65
2022-09-25T02:49:30.384Z,83.92
2022-09-25T02:52:08.978Z,84.08
2022-09-25T02:54:48.444Z,85.20
2022-09-25T02:57:28.601Z,84.80
2022-09-25T03:00:03.810Z,84.64
2022-09-25T03:02:38.322Z,84.97
2022-09-25T03:05:15.609Z,84.45
2022-09-25T03:07:58.223Z,83.43
2022-09-25T03:10:30.433Z,83.60
2022-09-25T03:13:00.549Z,84.51
2022-09-25T03:15:30.579Z,84.98
2022-09-25T03:18:00.644Z,85.56
2022-09-25T03:20:33.222Z,83.75
2022-09-25T03:23:03.305Z,83.35
2022-09-25T03:25:33.273Z,83.43
2022-09-25T03:28:03.746Z,83.94
2022-09-25T03:30:33.959Z,84.60
2022-09-25T03:33:04.099Z,85.13
2022-09-25T03:35:36.741Z,86.05
2022-09-25T03:38:08.361Z,85.73
2022-09-25T03:40:38.501Z,85.97
2022-09-25T03:45:37.608Z,85.87
2022-09-25T03:48:07.707Z,85.65
2022-09-25T03:50:42.072Z,86.22
2022-09-25T03:53:12.123Z,87.14
2022-09-25T03:55:42.529Z,86.95
2022-09-25T03:58:12.771Z,86.77
2022-09-25T04:00:42.812Z,86.89
2022-09-25T04:03:12.832Z,86.61
2022-09-25T04:05:46.483Z,87.20
2022-09-25T04:08:16.580Z,87.13
2022-09-25T04:10:46.603Z,87.29
2022-09-25T04:13:17.166Z,87.37
2022-09-25T04:15:47.204Z,87.61
2022-09-25T04:18:17.170Z,87.67
2022-09-25T04:20:49.797Z,87.58
2022-09-25T04:23:20.444Z,87.61
2022-09-25T04:25:50.471Z,87.87
2022-09-25T04:28:21.602Z,88.11
2022-09-25T04:30:52.406Z,88.29
2022-09-25T04:33:35.258Z,88.29
2022-09-25T04:36:09.160Z,88.57
2022-09-25T04:38:39.275Z,89.00
2022-09-25T04:41:09.714Z,88.73
2022-09-25T04:43:41.007Z,89.13
2022-09-25T04:46:20.139Z,88.95
2022-09-25T04:48:51.852Z,88.94
2022-09-25T04:51:24.507Z,89.37
2022-09-25T04:53:54.571Z,89.63
2022-09-25T04:56:25.096Z,89.45
2022-09-25T04:58:55.409Z,89.54
2022-09-25T05:01:25.548Z,89.26
2022-09-25T05:03:56.178Z,89.28
2022-09-25T05:06:29.686Z,89.66
2022-09-25T05:08:59.723Z,89.79
2022-09-25T05:11:29.719Z,90.11
2022-09-25T05:13:59.703Z,90.34
2022-09-25T05:16:31.006Z,90.63
2022-09-25T05:19:01.975Z,90.84
2022-09-25T05:21:34.786Z,90.66
2022-09-25T05:24:05.602Z,90.56
2022-09-25T05:26:35.658Z,91.08
2022-09-25T05:29:05.871Z,90.86
2022-09-25T05:31:36.820Z,91.02
2022-09-25T05:34:06.807Z,90.98
2022-09-25T05:36:39.488Z,91.59
2022-09-25T05:39:13.606Z,92.15
2022-09-25T05:41:44.610Z,91.75
2022-09-25T05:44:15.044Z,91.65
2022-09-25T05:46:45.334Z,91.58
2022-09-25T05:49:15.445Z,91.58
2022-09-25T05:51:48.531Z,91.21
2022-09-25T05:54:18.619Z,91.50
2022-09-25T05:56:48.624Z,91.06
2022-09-25T05:59:19.152Z,90.32
2022-09-25T06:01:49.597Z,89.96
2022-09-25T06:04:19.706Z,89.97
2022-09-25T06:06:52.667Z,89.06
2022-09-25T06:09:22.726Z,89.10
2022-09-25T06:11:53.601Z,89.27
2022-09-25T06:14:24.694Z,88.72
2022-09-25T06:16:54.828Z,88.69
2022-09-25T06:19:24.810Z,88.75
2022-09-25T06:21:57.684Z,88.60
2022-09-25T06:24:27.907Z,88.63
2022-09-25T06:26:57.979Z,88.42
2022-09-25T06:29:27.967Z,88.90
2022-09-25T06:31:57.967Z,88.46
2022-09-25T06:34:28.456Z,88.08
2022-09-25T06:37:03.571Z,88.11
2022-09-25T06:39:34.383Z,87.08
2022-09-25T06:42:04.767Z,86.42
2022-09-25T06:44:34.831Z,86.04
2022-09-25T06:47:05.085Z,84.14
2022-09-25T06:49:35.169Z,82.54
2022-09-25T06:52:07.923Z,82.57
2022-09-25T06:54:43.189Z,82.52
2022-09-25T06:57:14.301Z,81.04
2022-09-25T06:59:44.365Z,80.60
2022-09-25T07:02:26.898Z,79.35
2022-09-25T07:04:57.128Z,76.89
2022-09-25T07:07:30.607Z,75.26
2022-09-25T07:10:01.355Z,74.37
2022-09-25T07:12:34.265Z,74.22
2022-09-25T07:15:04.353Z,73.35
2022-09-25T07:17:34.877Z,72.53
2022-09-25T07:20:05.517Z,72.21
2022-09-25T07:22:38.183Z,69.73
2022-09-25T07:25:10.117Z,70.50
2022-09-25T07:27:40.280Z,70.07
2022-09-25T07:30:12.798Z,70.05
2022-09-25T07:32:42.851Z,69.96
2022-09-25T07:35:12.966Z,70.13
2022-09-25T07:37:45.544Z,70.17
2022-09-25T07:40:15.707Z,70.00
2022-09-25T07:42:45.830Z,70.12
2022-09-25T07:45:15.829Z,69.86
2022-09-25T07:47:45.806Z,69.51
2022-09-25T07:50:15.966Z,69.14
2022-09-25T07:52:48.644Z,68.17
2022-09-25T07:55:18.916Z,67.57
2022-09-25T07:57:49.513Z,62.33
2022-09-25T08:00:20.813Z,59.49
2022-09-25T08:02:59.780Z,57.58
2022-09-25T08:05:30.810Z,57.71
2022-09-25T08:08:03.889Z,56.48
2022-09-25T08:10:34.168Z,51.62
2022-09-25T08:13:04.343Z,45.83
2022-09-25T08:15:34.425Z,42.12
2022-09-25T08:18:04.522Z,39.51
2022-09-25T08:20:36.185Z,38.20
2022-09-25T08:23:08.889Z,35.55
2022-09-25T08:25:38.936Z,34.88
2022-09-25T08:28:09.058Z,33.95
2022-09-25T08:30:39.217Z,34.08
2022-09-25T08:33:15.414Z,33.05
2022-09-25T08:35:47.062Z,34.00
2022-09-25T08:38:19.736Z,31.25
2022-09-25T08:40:57.830Z,31.93
2022-09-25T08:43:29.832Z,31.30
2022-09-25T08:46:15.937Z,30.58
2022-09-25T08:49:06.353Z,32.32
2022-09-25T08:51:48.341Z,33.76
2022-09-25T08:54:27.687Z,35.28
2022-09-25T08:57:02.867Z,34.61
2022-09-25T08:59:38.318Z,33.23
2022-09-25T09:02:18.038Z,34.00
2022-09-25T09:04:52.031Z,33.05
2022-09-25T09:07:28.599Z,32.63
2022-09-25T09:10:07.542Z,33.78
2022-09-25T09:12:43.300Z,32.72
2022-09-25T09:15:31.165Z,32.75
2022-09-25T09:18:03.223Z,33.67
2022-09-25T09:20:44.494Z,35.47
2022-09-25T09:23:22.649Z,37.66
2022-09-25T09:26:04.984Z,37.57
2022-09-25T09:29:07.284Z,36.69
2022-09-25T09:31:51.923Z,35.47
2022-09-25T09:35:07.146Z,34.99
2022-09-25T09:37:53.194Z,36.28
2022-09-25T09:40:52.297Z,36.56
2022-09-25T09:43:56.531Z,35.35
2022-09-25T09:46:40.511Z,35.43
2022-09-25T09:49:20.627Z,37.14
2022-09-25T09:51:57.191Z,38.30
2022-09-25T09:54:36.033Z,38.66
2022-09-25T09:57:15.132Z,39.23
2022-09-25T09:59:53.301Z,39.50
2022-09-25T10:02:33.921Z,39.30
2022-09-25T10:05:09.568Z,38.30
2022-09-25T10:07:43.313Z,39.01
2022-09-25T10:10:18.376Z,38.87
2022-09-25T10:12:52.199Z,37.86
2022-09-25T10:15:33.180Z,36.41
2022-09-25T10:18:06.594Z,35.46
2022-09-25T10:20:43.930Z,34.39
2022-09-25T10:23:33.319Z,33.79
2022-09-25T10:26:03.338Z,33.54
2022-09-25T10:28:36.930Z,33.22
2022-09-25T10:31:13.066Z,33.25
2022-09-25T10:33:43.316Z,31.75
2022-09-25T10:36:13.578Z,31.24
2022-09-25T10:38:55.275Z,32.52
2022-09-25T10:41:33.263Z,32.32
2022-09-25T10:44:05.112Z,32.87
2022-09-25T10:47:07.220Z,32.40
2022-09-25T10:50:02.318Z,29.80
2022-09-25T10:52:32.661Z,29.91
2022-09-25T10:55:19.225Z,29.77
2022-09-25T10:57:51.562Z,30.68
2022-09-25T11:00:26.750Z,30.88
2022-09-25T11:03:04.132Z,30.46
2022-09-25T11:05:36.644Z,29.71
2022-09-25T11:08:09.564Z,31.06
2022-09-25T11:10:49.027Z,31.44
2022-09-25T11:13:28.359Z,31.27
2022-09-25T11:16:03.644Z,33.30
2022-09-25T11:18:49.898Z,32.33
2022-09-25T11:21:26.067Z,32.01
2022-09-25T11:24:09.909Z,30.35
2022-09-25T11:26:46.219Z,30.30
2022-09-25T11:29:23.342Z,28.99
2022-09-25T11:32:01.301Z,28.77
2022-09-25T11:34:55.061Z,27.88
2022-09-25T11:37:37.056Z,27.79
2022-09-25T11:40:46.737Z,27.43
2022-09-25T11:43:25.964Z,25.53
2022-09-25T11:46:02.892Z,26.51
2022-09-25T11:48:45.816Z,27.18
2022-09-25T11:51:30.241Z,25.37
2022-09-25T11:54:32.590Z,25.44
2022-09-25T11:57:12.274Z,25.47
2022-09-25T12:00:00.273Z,24.92
2022-09-25T12:02:43.972Z,25.67
2022-09-25T12:05:39.921Z,27.10
2022-09-25T12:08:31.310Z,26.56
2022-09-25T12:11:14.443Z,24.04
2022-09-25T12:13:56.773Z,22.55
2022-09-25T12:16:37.172Z,22.17
2022-09-25T12:19:23.703Z,21.55
2022-09-25T12:22:01.785Z,22.07
2022-09-25T12:24:53.535Z,21.13
2022-09-25T12:27:38.298Z,20.21
2022-09-25T12:30:19.938Z,21.52
2022-09-25T12:33:15.517Z,23.45
2022-09-25T12:35:57.020Z,22.35
2022-09-25T12:38:41.440Z,21.14
2022-09-25T12:41:21.823Z,21.10
2022-09-25T12:43:58.665Z,20.28
2022-09-25T12:46:32.697Z,19.64
2022-09-25T12:49:14.187Z,19.79
2022-09-25T12:51:50.908Z,21.02
2022-09-25T12:54:29.524Z,20.61
2022-09-25T12:57:07.352Z,20.22
2022-09-25T12:59:46.623Z,20.18
2022-09-25T13:02:26.656Z,20.36
2022-09-25T13:05:08.169Z,20.35
2022-09-25T13:07:45.437Z,20.65
2022-09-25T13:10:28.206Z,20.56
2022-09-25T13:13:10.701Z,21.50
2022-09-25T13:15:45.246Z,21.09
2022-09-25T13:18:20.382Z,20.46
2022-09-25T13:20:56.156Z,22.75
2022-09-25T13:23:34.413Z,25.16
2022-09-25T13:26:14.370Z,27.51
2022-09-25T13:28:57.324Z,28.61
2022-09-25T13:31:30.367Z,30.21
2022-09-25T13:34:08.348Z,31.33
2022-09-25T13:36:44.748Z,32.59
2022-09-25T13:39:43.919Z,34.95
2022-09-25T13:42:24.757Z,35.36
2022-09-25T13:45:25.999Z,37.10
2022-09-25T13:48:07.962Z,38.11
2022-09-25T13:50:46.965Z,38.45
2022-09-25T13:53:29.610Z,40.37
2022-09-25T13:56:31.410Z,41.90
2022-09-25T13:59:27.227Z,43.25
2022-09-25T14:02:27.352Z,44.13
2022-09-25T14:04:58.760Z,45.21
2022-09-25T14:07:30.764Z,46.30
2022-09-25T14:10:03.721Z,46.95
2022-09-25T14:12:45.112Z,47.66
2022-09-25T14:15:26.914Z,48.39
2022-09-25T14:18:02.317Z,48.41
2022-09-25T14:20:40.827Z,49.52
2022-09-25T14:23:18.023Z,49.87
2022-09-25T14:25:48.135Z,49.25
2022-09-25T14:28:24.870Z,49.95
2022-09-25T14:31:26.412Z,49.93
2022-09-25T14:34:28.336Z,50.93
2022-09-25T14:37:17.628Z,51.60
2022-09-25T14:39:56.872Z,52.16
2022-09-25T14:42:50.287Z,52.45
2022-09-25T14:45:57.833Z,52.97
2022-09-25T14:48:36.558Z,51.12
2022-09-25T14:51:13.016Z,50.67
2022-09-25T14:53:47.380Z,50.06
2022-09-25T14:56:18.128Z,51.25
2022-09-25T14:58:52.406Z,52.67
2022-09-25T15:01:29.759Z,54.81
2022-09-25T15:04:04.819Z,59.83
2022-09-25T15:06:40.670Z,63.25
2022-09-25T15:09:33.109Z,66.36
2022-09-25T15:12:13.039Z,68.97
2022-09-25T15:14:43.143Z,73.48
2022-09-25T15:17:22.150Z,74.45
2022-09-25T15:19:52.457Z,74.31
2022-09-25T15:22:27.498Z,75.30
2022-09-25T15:25:01.443Z,74.32
2022-09-25T15:27:32.578Z,75.16
2022-09-25T15:30:03.572Z,75.59
2022-09-25T15:32:40.804Z,74.88
2022-09-25T15:35:19.868Z,75.38
2022-09-25T15:37:52.753Z,75.75
2022-09-25T15:40:28.782Z,74.35
2022-09-25T15:42:59.932Z,75.49
2022-09-25T15:45:44.069Z,78.21
2022-09-25T15:48:26.873Z,79.12
2022-09-25T15:50:58.882Z,80.23
2022-09-25T15:53:36.263Z,80.99
2022-09-25T15:56:18.607Z,79.58
2022-09-25T15:58:53.098Z,78.92
2022-09-25T16:01:39.595Z,74.42
2022-09-25T16:04:25.525Z,72.97
2022-09-25T16:06:55.672Z,74.80
2022-09-25T16:09:35.202Z,75.63
2022-09-25T16:12:24.113Z,75.91
2022-09-25T16:14:55.238Z,77.58
2022-09-25T16:17:34.826Z,79.47
2022-09-25T16:20:32.466Z,79.99
2022-09-25T16:23:05.628Z,79.33
2022-09-25T16:25:40.599Z,79.94
2022-09-25T16:28:19.566Z,80.23
2022-09-25T16:30:51.784Z,79.61
2022-09-25T16:33:28.494Z,76.29
2022-09-25T16:36:13.002Z,77.03
2022-09-25T16:39:13.428Z,77.14
2022-09-25T16:41:51.124Z,78.03
2022-09-25T16:44:24.414Z,78.52
2022-09-25T16:47:21.680Z,78.25
2022-09-25T16:49:52.230Z,78.79
2022-09-25T16:52:26.007Z,79.21
2022-09-25T16:54:59.906Z,79.13
2022-09-25T16:57:34.930Z,79.14
2022-09-25T17:00:05.790Z,80.07
2022-09-25T17:02:41.415Z,80.31
2022-09-25T17:05:19.024Z,79.56
2022-09-25T17:07:50.770Z,79.87
2022-09-25T17:10:24.340Z,79.93
2022-09-25T17:12:59.121Z,79.28
2022-09-25T17:15:36.236Z,79.08
2022-09-25T17:18:12.777Z,78.94
2022-09-25T17:20:42.894Z,78.29
2022-09-25T17:23:14.247Z,79.03
2022-09-25T17:25:48.112Z,81.66
2022-09-25T17:28:21.447Z,83.13
2022-09-25T17:30:51.603Z,84.77
2022-09-25T17:33:24.697Z,84.83
2022-09-25T17:35:59.211Z,84.57
2022-09-25T17:38:32.323Z,86.49
2022-09-25T17:41:05.766Z,86.24
2022-09-25T17:43:43.242Z,86.32
2022-09-25T17:46:15.023Z,85.66
2022-09-25T17:48:47.908Z,86.57
2022-09-25T17:51:24.931Z,85.19
2022-09-25T17:53:56.230Z,84.70
2022-09-25T17:56:28.372Z,85.33
2022-09-25T17:59:02.232Z,86.25
2022-09-25T18:01:39.047Z,87.21
2022-09-25T18:04:23.107Z,89.08
2022-09-25T18:06:54.031Z,88.65
2022-09-25T18:09:23.848Z,90.77
2022-09-25T18:11:55.246Z,90.87
2022-09-25T18:14:27.927Z,91.28
2022-09-25T18:16:57.986Z,91.49
2022-09-25T18:19:40.460Z,91.68
2022-09-25T18:22:21.914Z,92.60
2022-09-25T18:24:56.935Z,92.22
2022-09-25T18:27:29.607Z,91.49
2022-09-25T18:30:02.353Z,90.75
2022-09-25T18:32:33.210Z,89.94
2022-09-25T18:35:03.083Z,89.81
2022-09-25T18:37:33.225Z,91.28
2022-09-25T18:40:03.690Z,89.88
2022-09-25T18:42:33.757Z,88.92
2022-09-25T18:45:08.114Z,90.13
2022-09-25T18:47:38.241Z,87.95
2022-09-25T18:50:10.420Z,88.69
2022-09-25T18:52:41.042Z,90.07
2022-09-25T18:55:11.559Z,91.48
2022-09-25T18:57:42.834Z,91.55
2022-09-25T19:00:16.429Z,92.07
2022-09-25T19:02:46.640Z,91.65
2022-09-25T19:05:17.539Z,91.60
2022-09-25T19:07:47.343Z,93.65
2022-09-25T19:10:17.429Z,94.17
2022-09-25T19:12:47.763Z,93.47
2022-09-25T19:15:21.226Z,94.37
2022-09-25T19:17:51.345Z,91.50
2022-09-25T19:20:21.358Z,90.29
2022-09-25T19:22:51.389Z,90.92
2022-09-25T19:25:22.645Z,90.60
2022-09-25T19:27:52.989Z,92.14
2022-09-25T19:30:25.747Z,93.75
2022-09-25T19:32:56.084Z,93.06
2022-09-25T19:35:26.373Z,93.35
2022-09-25T19:37:56.487Z,91.26
2022-09-25T19:40:41.441Z,91.08
2022-09-25T19:43:11.572Z,91.76
2022-09-25T19:45:52.147Z,92.53
2022-09-25T19:48:22.881Z,92.33
2022-09-25T19:50:53.648Z,93.20
2022-09-25T19:53:23.712Z,93.89
2022-09-25T19:55:54.564Z,92.69
2022-09-25T19:58:25.881Z,94.76
2022-09-25T20:00:58.710Z,95.24
2022-09-25T20:03:28.814Z,96.13
2022-09-25T20:05:58.934Z,96.43
2022-09-25T20:08:28.946Z,97.33
2022-09-25T20:10:58.962Z,96.58
2022-09-25T20:13:29.648Z,95.90
2022-09-25T20:16:10.801Z,96.77
2022-09-25T20:18:41.403Z,97.67
2022-09-25T20:21:13.953Z,96.95
2022-09-25T20:23:44.230Z,96.19
2022-09-25T20:26:16.848Z,96.13
2022-09-25T20:28:48.034Z,96.77
2022-09-25T20:31:20.785Z,96.89
2022-09-25T20:33:51.317Z,96.72
2022-09-25T20:36:22.155Z,97.84
2022-09-25T20:38:52.353Z,98.65
2022-09-25T20:41:24.253Z,98.37
2022-09-25T20:43:57.457Z,98.42
2022-09-25T20:46:32.741Z,99.37
2022-09-25T20:49:03.766Z,100.00
2022-09-25T20:51:36.918Z,99.12
2022-09-25T20:54:10.961Z,99.57
2022-09-25T20:56:43.930Z,100.00
2022-09-25T20:59:16.216Z,99.98
2022-09-25T21:01:49.409Z,100.00
2022-09-25T21:04:19.978Z,100.00
2022-09-25T21:06:50.099Z,100.00
2022-09-25T21:09:24.138Z,100.00
2022-09-25T21:11:54.826Z,99.32
2022-09-25T21:14:27.333Z,99.88
2022-09-25T21:17:00.145Z,99.80
2022-09-25T21:19:31.875Z,99.26
2022-09-25T21:22:02.037Z,98.56
2022-09-25T21:24:32.099Z,98.99
2022-09-25T21:27:02.149Z,98.65
2022-09-25T21:29:33.912Z,98.91
2022-09-25T21:32:06.737Z,99.47
2022-09-25T21:34:36.757Z,98.64
2022-09-25T21:37:06.813Z,98.69
2022-09-25T21:39:36.799Z,100.00
2022-09-25T21:42:07.335Z,100.00
2022-09-25T21:44:38.243Z,100.00
2022-09-25T21:47:10.749Z,100.00
2022-09-25T21:49:40.922Z,100.00
2022-09-25T21:52:10.982Z,100.00
2022-09-25T21:54:40.990Z,100.00
2022-09-25T21:57:11.008Z,100.00
2022-09-25T21:59:41.525Z,100.00
2022-09-25T22:02:14.741Z,100.00
2022-09-25T22:04:45.666Z,100.00
2022-09-25T22:07:15.495Z,100.00
2022-09-25T22:09:45.678Z,100.00
2022-09-25T22:12:15.744Z,100.00
2022-09-25T22:14:45.755Z,100.00
2022-09-25T22:17:18.382Z,100.00
2022-09-25T22:19:48.417Z,100.00
2022-09-25T22:22:18.506Z,100.00
2022-09-25T22:24:48.523Z,100.00
2022-09-25T22:27:18.550Z,100.00
2022-09-25T22:29:48.542Z,100.00
2022-09-25T22:32:21.167Z,100.00
2022-09-25T22:34:51.246Z,100.00
2022-09-25T22:37:21.272Z,100.00
2022-09-25T22:39:51.268Z,100.00
2022-09-25T22:42:21.606Z,100.00
2022-09-25T22:44:51.725Z,100.00
2022-09-25T22:47:24.399Z,100.00
2022-09-25T22:49:54.717Z,100.00
2022-09-25T22:52:24.816Z,100.00
2022-09-25T22:54:54.823Z,100.00
2022-09-25T22:57:24.828Z,100.00
2022-09-25T22:59:54.963Z,100.00
2022-09-25T23:02:27.597Z,100.00
2022-09-25T23:05:00.537Z,100.00
2022-09-25T23:07:32.928Z,100.00
2022-09-25T23:10:03.028Z,100.00
2022-09-25T23:12:33.181Z,100.00
2022-09-25T23:15:03.299Z,100.00
2022-09-25T23:17:35.940Z,100.00
2022-09-25T23:20:06.380Z,100.00
2022-09-25T23:22:36.536Z,100.00
2022-09-25T23:25:07.171Z,100.00
2022-09-25T23:27:37.382Z,100.00
2022-09-25T23:30:08.556Z,100.00
2022-09-25T23:32:41.313Z,100.00
2022-09-25T23:35:12.453Z,100.00
2022-09-25T23:37:42.515Z,100.00
2022-09-25T23:40:15.630Z,100.00
2022-09-25T23:42:46.168Z,100.00
2022-09-25T23:45:16.274Z,100.00
2022-09-25T23:47:48.883Z,100.00
2022-09-25T23:50:19.198Z,100.00
2022-09-25T23:52:49.312Z,100.00
2022-09-25T23:55:19.544Z,100.00
2022-09-25T23:57:49.701Z,100.00
